createdAt,value
2022-08-17T00:00:49.693Z,1002.21
2022-08-17T00:01:52.146Z,1002.18
2022-08-17T00:02:42.846Z,1002.18
2022-08-17T00:03:40.367Z,1002.14
2022-08-17T00:04:40.399Z,1002.15
2022-08-17T00:05:40.356Z,1002.12
2022-08-17T00:06:40.306Z,1002.11
2022-08-17T00:07:40.304Z,1002.03
2022-08-17T00:08:40.222Z,1002.05
2022-08-17T00:09:40.325Z,1002.05
2022-08-17T00:10:40.224Z,1002.05
2022-08-17T00:11:40.449Z,1002.02
2022-08-17T00:12:43.736Z,1002.02
2022-08-17T00:13:40.307Z,1001.98
2022-08-17T00:14:40.288Z,1001.96
2022-08-17T00:15:40.250Z,1001.99
2022-08-17T00:16:56.233Z,1001.97
2022-08-17T00:17:40.238Z,1002.01
2022-08-17T00:19:06.041Z,1001.99
2022-08-17T00:19:40.147Z,1001.95
2022-08-17T00:20:40.231Z,1001.94
2022-08-17T00:22:14.716Z,1001.96
2022-08-17T00:22:40.161Z,1001.94
2022-08-17T00:23:47.910Z,1001.93
2022-08-17T00:24:40.062Z,1001.95
2022-08-17T00:25:40.208Z,1001.97
2022-08-17T00:26:44.934Z,1001.98
2022-08-17T00:27:39.995Z,1001.99
2022-08-17T00:28:40.084Z,1001.98
2022-08-17T00:29:40.052Z,1001.95
2022-08-17T00:30:51.051Z,1001.99
2022-08-17T00:31:40.032Z,1001.97
2022-08-17T00:33:11.985Z,1001.97
2022-08-17T00:33:39.990Z,1001.97
2022-08-17T00:34:39.994Z,1001.98
2022-08-17T00:35:40.084Z,1001.95
2022-08-17T00:36:40.112Z,1001.93
2022-08-17T00:37:39.934Z,1001.95
2022-08-17T00:38:39.937Z,1001.92
2022-08-17T00:39:39.899Z,1001.89
2022-08-17T00:40:40.713Z,1001.91
2022-08-17T00:41:40.769Z,1001.89
2022-08-17T00:42:39.847Z,1001.88
2022-08-17T00:43:39.919Z,1001.87
2022-08-17T00:44:39.903Z,1001.85
2022-08-17T00:45:39.822Z,1001.89
2022-08-17T00:46:39.984Z,1001.84
2022-08-17T00:47:39.820Z,1001.87
2022-08-17T00:48:39.939Z,1001.84
2022-08-17T00:49:39.857Z,1001.76
2022-08-17T00:50:39.915Z,1001.76
2022-08-17T00:51:39.960Z,1001.79
2022-08-17T00:52:39.992Z,1001.80
2022-08-17T00:53:39.834Z,1001.79
2022-08-17T00:54:42.017Z,1001.78
2022-08-17T00:55:39.717Z,1001.82
2022-08-17T00:56:39.675Z,1001.79
2022-08-17T00:57:39.824Z,1001.79
2022-08-17T00:58:39.768Z,1001.79
2022-08-17T00:59:39.682Z,1001.82
2022-08-17T01:00:39.778Z,1001.81
2022-08-17T01:01:39.933Z,1001.85
2022-08-17T01:02:42.271Z,1001.85
2022-08-17T01:03:39.614Z,1001.89
2022-08-17T01:04:39.694Z,1001.89
2022-08-17T01:05:42.158Z,1001.91
2022-08-17T01:06:39.671Z,1001.84
2022-08-17T01:07:39.726Z,1001.86
2022-08-17T01:08:39.761Z,1001.86
2022-08-17T01:09:39.760Z,1001.85
2022-08-17T01:11:00.083Z,1001.84
2022-08-17T01:11:39.556Z,1001.85
2022-08-17T01:12:39.546Z,1001.87
2022-08-17T01:13:41.230Z,1001.85
2022-08-17T01:14:39.487Z,1001.82
2022-08-17T01:15:39.531Z,1001.83
2022-08-17T01:16:39.510Z,1001.82
2022-08-17T01:17:39.553Z,1001.81
2022-08-17T01:18:39.432Z,1001.78
2022-08-17T01:19:39.535Z,1001.76
2022-08-17T01:20:47.811Z,1001.76
2022-08-17T01:21:39.484Z,1001.74
2022-08-17T01:22:39.557Z,1001.76
2022-08-17T01:23:39.424Z,1001.73
2022-08-17T01:24:39.340Z,1001.74
2022-08-17T01:25:39.432Z,1001.72
2022-08-17T01:26:39.414Z,1001.75
2022-08-17T01:27:39.524Z,1001.71
2022-08-17T01:28:54.509Z,1001.71
2022-08-17T01:29:39.388Z,1001.72
2022-08-17T01:30:57.454Z,1001.72
2022-08-17T01:31:39.333Z,1001.71
2022-08-17T01:32:39.306Z,1001.70
2022-08-17T01:33:39.312Z,1001.70
2022-08-17T01:34:42.974Z,1001.73
2022-08-17T01:35:39.299Z,1001.75
2022-08-17T01:36:39.491Z,1001.75
2022-08-17T01:37:39.393Z,1001.72
2022-08-17T01:38:39.214Z,1001.72
2022-08-17T01:39:39.877Z,1001.75
2022-08-17T01:40:39.253Z,1001.68
2022-08-17T01:41:39.216Z,1001.72
2022-08-17T01:42:39.146Z,1001.69
2022-08-17T01:43:39.145Z,1001.71
2022-08-17T01:44:39.303Z,1001.71
2022-08-17T01:45:39.325Z,1001.71
2022-08-17T01:46:39.223Z,1001.63
2022-08-17T01:47:39.332Z,1001.67
2022-08-17T01:48:39.119Z,1001.70
2022-08-17T01:49:39.163Z,1001.68
2022-08-17T01:50:39.124Z,1001.70
2022-08-17T01:51:39.418Z,1001.70
2022-08-17T01:52:39.087Z,1001.72
2022-08-17T01:53:39.277Z,1001.73
2022-08-17T01:54:39.069Z,1001.74
2022-08-17T01:55:39.049Z,1001.76
2022-08-17T01:56:39.153Z,1001.72
2022-08-17T01:57:39.045Z,1001.76
2022-08-17T01:58:39.127Z,1001.72
2022-08-17T01:59:39.055Z,1001.76
2022-08-17T02:00:46.721Z,1001.74
2022-08-17T02:01:39.087Z,1001.74
2022-08-17T02:02:39.019Z,1001.76
2022-08-17T02:03:39.224Z,1001.74
2022-08-17T02:04:38.977Z,1001.75
2022-08-17T02:05:39.033Z,1001.74
2022-08-17T02:06:52.661Z,1001.70
2022-08-17T02:07:59.821Z,1001.70
2022-08-17T02:09:01.622Z,1001.63
2022-08-17T02:09:39.020Z,1001.64
2022-08-17T02:10:39.032Z,1001.63
2022-08-17T02:11:39.061Z,1001.61
2022-08-17T02:12:39.847Z,1001.63
2022-08-17T02:13:38.932Z,1001.61
2022-08-17T02:14:39.051Z,1001.62
2022-08-17T02:15:38.916Z,1001.56
2022-08-17T02:16:38.880Z,1001.64
2022-08-17T02:17:38.831Z,1001.63
2022-08-17T02:18:38.928Z,1001.62
2022-08-17T02:19:38.834Z,1001.64
2022-08-17T02:20:41.894Z,1001.66
2022-08-17T02:21:38.860Z,1001.69
2022-08-17T02:22:38.948Z,1001.68
2022-08-17T02:23:38.792Z,1001.69
2022-08-17T02:25:00.784Z,1001.68
2022-08-17T02:25:38.845Z,1001.71
2022-08-17T02:26:38.953Z,1001.72
2022-08-17T02:27:38.944Z,1001.71
2022-08-17T02:28:38.776Z,1001.68
2022-08-17T02:29:38.892Z,1001.66
2022-08-17T02:31:01.766Z,1001.68
2022-08-17T02:31:38.788Z,1001.66
2022-08-17T02:32:38.755Z,1001.66
2022-08-17T02:33:43.037Z,1001.66
2022-08-17T02:34:38.728Z,1001.69
2022-08-17T02:35:38.653Z,1001.71
2022-08-17T02:36:38.688Z,1001.70
2022-08-17T02:37:38.531Z,1001.69
2022-08-17T02:38:38.604Z,1001.65
2022-08-17T02:39:38.686Z,1001.66
2022-08-17T02:40:38.582Z,1001.66
2022-08-17T02:41:38.572Z,1001.61
2022-08-17T02:42:38.518Z,1001.64
2022-08-17T02:43:38.611Z,1001.64
2022-08-17T02:44:39.913Z,1001.65
2022-08-17T02:45:38.486Z,1001.60
2022-08-17T02:46:39.280Z,1001.63
2022-08-17T02:47:38.457Z,1001.63
2022-08-17T02:48:38.681Z,1001.67
2022-08-17T02:49:38.474Z,1001.64
2022-08-17T02:50:38.508Z,1001.72
2022-08-17T02:51:38.887Z,1001.72
2022-08-17T02:52:42.959Z,1001.72
2022-08-17T02:53:38.409Z,1001.73
2022-08-17T02:54:39.931Z,1001.70
2022-08-17T02:55:38.515Z,1001.69
2022-08-17T02:56:38.521Z,1001.69
2022-08-17T02:57:38.414Z,1001.64
2022-08-17T02:58:38.314Z,1001.66
2022-08-17T02:59:38.274Z,1001.62
2022-08-17T03:00:38.434Z,1001.63
2022-08-17T03:01:38.383Z,1001.60
2022-08-17T03:02:38.333Z,1001.61
2022-08-17T03:03:38.312Z,1001.59
2022-08-17T03:04:38.287Z,1001.62
2022-08-17T03:05:38.325Z,1001.62
2022-08-17T03:06:38.299Z,1001.61
2022-08-17T03:07:38.357Z,1001.63
2022-08-17T03:08:38.159Z,1001.63
2022-08-17T03:09:38.233Z,1001.62
2022-08-17T03:10:38.255Z,1001.62
2022-08-17T03:11:38.439Z,1001.56
2022-08-17T03:12:38.276Z,1001.60
2022-08-17T03:13:38.141Z,1001.56
2022-08-17T03:14:41.544Z,1001.60
2022-08-17T03:15:38.325Z,1001.61
2022-08-17T03:16:38.208Z,1001.59
2022-08-17T03:17:38.323Z,1001.59
2022-08-17T03:18:38.186Z,1001.58
2022-08-17T03:19:42.229Z,1001.61
2022-08-17T03:20:38.168Z,1001.61
2022-08-17T03:21:38.124Z,1001.58
2022-08-17T03:22:38.647Z,1001.57
2022-08-17T03:23:38.033Z,1001.53
2022-08-17T03:24:38.160Z,1001.52
2022-08-17T03:25:38.150Z,1001.54
2022-08-17T03:26:38.302Z,1001.51
2022-08-17T03:27:37.986Z,1001.51
2022-08-17T03:28:37.954Z,1001.53
2022-08-17T03:29:37.981Z,1001.50
2022-08-17T03:30:37.995Z,1001.50
2022-08-17T03:31:38.089Z,1001.51
2022-08-17T03:32:37.963Z,1001.54
2022-08-17T03:33:37.967Z,1001.51
2022-08-17T03:34:38.001Z,1001.51
2022-08-17T03:35:37.943Z,1001.50
2022-08-17T03:36:38.092Z,1001.52
2022-08-17T03:37:38.002Z,1001.51
2022-08-17T03:38:38.945Z,1001.52
2022-08-17T03:39:37.969Z,1001.50
2022-08-17T03:40:58.999Z,1001.55
2022-08-17T03:41:37.886Z,1001.53
2022-08-17T03:42:37.841Z,1001.52
2022-08-17T03:43:37.882Z,1001.50
2022-08-17T03:44:37.790Z,1001.52
2022-08-17T03:45:37.894Z,1001.54
2022-08-17T03:46:37.836Z,1001.52
2022-08-17T03:47:37.777Z,1001.51
2022-08-17T03:48:37.870Z,1001.56
2022-08-17T03:49:37.818Z,1001.51
2022-08-17T03:50:37.786Z,1001.52
2022-08-17T03:51:38.003Z,1001.53
2022-08-17T03:52:37.824Z,1001.51
2022-08-17T03:53:37.923Z,1001.52
2022-08-17T03:54:37.885Z,1001.52
2022-08-17T03:55:37.779Z,1001.51
2022-08-17T03:56:37.739Z,1001.53
2022-08-17T03:57:37.807Z,1001.52
2022-08-17T03:58:37.822Z,1001.51
2022-08-17T03:59:37.785Z,1001.58
2022-08-17T04:00:38.912Z,1001.55
2022-08-17T04:01:38.044Z,1001.54
2022-08-17T04:02:37.745Z,1001.57
2022-08-17T04:03:37.725Z,1001.59
2022-08-17T04:04:37.667Z,1001.59
2022-08-17T04:05:37.656Z,1001.62
2022-08-17T04:06:37.767Z,1001.64
2022-08-17T04:07:37.821Z,1001.67
2022-08-17T04:08:37.815Z,1001.65
2022-08-17T04:09:37.771Z,1001.67
2022-08-17T04:10:45.019Z,1001.67
2022-08-17T04:11:37.613Z,1001.64
2022-08-17T04:12:37.600Z,1001.63
2022-08-17T04:13:37.582Z,1001.66
2022-08-17T04:14:50.807Z,1001.67
2022-08-17T04:15:37.506Z,1001.64
2022-08-17T04:16:37.681Z,1001.65
2022-08-17T04:17:37.642Z,1001.63
2022-08-17T04:18:37.607Z,1001.62
2022-08-17T04:19:37.536Z,1001.64
2022-08-17T04:20:37.573Z,1001.58
2022-08-17T04:21:37.718Z,1001.61
2022-08-17T04:22:37.540Z,1001.62
2022-08-17T04:23:37.481Z,1001.57
2022-08-17T04:24:38.030Z,1001.57
2022-08-17T04:25:37.567Z,1001.54
2022-08-17T04:26:52.119Z,1001.56
2022-08-17T04:27:37.385Z,1001.57
2022-08-17T04:28:37.445Z,1001.59
2022-08-17T04:29:55.015Z,1001.61
2022-08-17T04:30:37.519Z,1001.61
2022-08-17T04:31:37.682Z,1001.66
2022-08-17T04:33:03.605Z,1001.66
2022-08-17T04:33:37.392Z,1001.68
2022-08-17T04:34:37.426Z,1001.70
2022-08-17T04:35:38.957Z,1001.72
2022-08-17T04:36:37.527Z,1001.72
2022-08-17T04:37:38.265Z,1001.74
2022-08-17T04:38:37.422Z,1001.75
2022-08-17T04:39:37.409Z,1001.76
2022-08-17T04:40:37.373Z,1001.74
2022-08-17T04:41:37.525Z,1001.77
2022-08-17T04:42:37.749Z,1001.78
2022-08-17T04:43:37.306Z,1001.79
2022-08-17T04:44:38.184Z,1001.80
2022-08-17T04:45:37.510Z,1001.79
2022-08-17T04:46:37.409Z,1001.84
2022-08-17T04:47:37.685Z,1001.82
2022-08-17T04:48:37.629Z,1001.82
2022-08-17T04:49:37.202Z,1001.84
2022-08-17T04:50:37.155Z,1001.82
2022-08-17T04:51:37.305Z,1001.82
2022-08-17T04:52:43.316Z,1001.81
2022-08-17T04:53:37.199Z,1001.85
2022-08-17T04:54:37.604Z,1001.87
2022-08-17T04:55:37.473Z,1001.90
2022-08-17T04:56:37.157Z,1001.90
2022-08-17T04:57:40.579Z,1001.92
2022-08-17T04:58:37.273Z,1001.93
2022-08-17T04:59:37.436Z,1001.94
2022-08-17T05:00:37.143Z,1001.96
2022-08-17T05:01:37.479Z,1001.94
2022-08-17T05:02:37.372Z,1001.94
2022-08-17T05:03:37.361Z,1001.93
2022-08-17T05:04:37.351Z,1001.93
2022-08-17T05:05:37.306Z,1001.97
2022-08-17T05:06:37.052Z,1001.99
2022-08-17T05:07:37.098Z,1001.97
2022-08-17T05:08:37.286Z,1001.98
2022-08-17T05:09:37.244Z,1002.00
2022-08-17T05:10:37.160Z,1001.97
2022-08-17T05:11:37.134Z,1002.02
2022-08-17T05:12:37.174Z,1001.98
2022-08-17T05:13:37.266Z,1002.00
2022-08-17T05:14:37.007Z,1002.01
2022-08-17T05:15:37.093Z,1002.02
2022-08-17T05:16:37.166Z,1002.04
2022-08-17T05:17:37.207Z,1002.02
2022-08-17T05:18:36.960Z,1002.04
2022-08-17T05:19:37.353Z,1002.04
2022-08-17T05:20:37.278Z,1002.07
2022-08-17T05:21:37.339Z,1002.10
2022-08-17T05:22:36.920Z,1002.13
2022-08-17T05:23:43.037Z,1002.12
2022-08-17T05:24:39.061Z,1002.16
2022-08-17T05:25:37.484Z,1002.13
2022-08-17T05:26:37.197Z,1002.14
2022-08-17T05:27:37.047Z,1002.16
2022-08-17T05:28:36.909Z,1002.14
2022-08-17T05:29:36.940Z,1002.17
2022-08-17T05:30:36.877Z,1002.14
2022-08-17T05:31:36.846Z,1002.16
2022-08-17T05:32:38.322Z,1002.13
2022-08-17T05:33:36.636Z,1002.13
2022-08-17T05:34:36.784Z,1002.12
2022-08-17T05:35:36.845Z,1002.14
2022-08-17T05:36:37.946Z,1002.17
2022-08-17T05:37:36.814Z,1002.15
2022-08-17T05:38:36.915Z,1002.15
2022-08-17T05:39:36.835Z,1002.12
2022-08-17T05:40:36.741Z,1002.13
2022-08-17T05:41:36.761Z,1002.12
2022-08-17T05:42:36.648Z,1002.13
2022-08-17T05:43:36.688Z,1002.12
2022-08-17T05:44:36.543Z,1002.17
2022-08-17T05:45:54.376Z,1002.14
2022-08-17T05:46:36.765Z,1002.15
2022-08-17T05:47:36.708Z,1002.15
2022-08-17T05:48:39.955Z,1002.13
2022-08-17T05:49:36.515Z,1002.12
2022-08-17T05:50:36.621Z,1002.13
2022-08-17T05:51:36.937Z,1002.14
2022-08-17T05:52:36.546Z,1002.14
2022-08-17T05:53:36.703Z,1002.15
2022-08-17T05:54:36.862Z,1002.15
2022-08-17T05:55:36.627Z,1002.15
2022-08-17T05:56:36.525Z,1002.09
2022-08-17T05:57:36.562Z,1002.12
2022-08-17T05:58:36.696Z,1002.04
2022-08-17T05:59:36.707Z,1002.05
2022-08-17T06:00:36.864Z,1002.06
2022-08-17T06:01:36.522Z,1002.01
2022-08-17T06:02:36.497Z,1002.01
2022-08-17T06:03:36.589Z,1002.02
2022-08-17T06:04:36.510Z,1001.97
2022-08-17T06:05:36.790Z,1002.02
2022-08-17T06:06:36.431Z,1001.98
2022-08-17T06:07:36.497Z,1001.96
2022-08-17T06:08:36.378Z,1001.94
2022-08-17T06:09:36.568Z,1001.95
2022-08-17T06:10:36.630Z,1001.89
2022-08-17T06:11:36.704Z,1001.93
2022-08-17T06:12:36.637Z,1001.93
2022-08-17T06:13:36.369Z,1001.90
2022-08-17T06:14:36.299Z,1001.92
2022-08-17T06:15:36.610Z,1001.90
2022-08-17T06:16:36.523Z,1001.86
2022-08-17T06:17:36.380Z,1001.94
2022-08-17T06:18:36.271Z,1001.89
2022-08-17T06:19:36.524Z,1001.90
2022-08-17T06:20:36.225Z,1001.89
2022-08-17T06:21:36.398Z,1001.86
2022-08-17T06:22:36.231Z,1001.85
2022-08-17T06:23:36.248Z,1001.84
2022-08-17T06:24:36.391Z,1001.88
2022-08-17T06:25:36.330Z,1001.90
2022-08-17T06:26:38.480Z,1001.85
2022-08-17T06:27:36.242Z,1001.83
2022-08-17T06:28:36.029Z,1001.84
2022-08-17T06:29:36.214Z,1001.84
2022-08-17T06:30:58.302Z,1001.85
2022-08-17T06:31:35.975Z,1001.79
2022-08-17T06:32:36.016Z,1001.77
2022-08-17T06:33:35.912Z,1001.80
2022-08-17T06:34:35.978Z,1001.82
2022-08-17T06:35:36.018Z,1001.88
2022-08-17T06:36:36.428Z,1001.85
2022-08-17T06:37:37.232Z,1001.83
2022-08-17T06:38:37.724Z,1001.81
2022-08-17T06:39:36.018Z,1001.81
2022-08-17T06:40:36.028Z,1001.78
2022-08-17T06:41:37.995Z,1001.79
2022-08-17T06:42:54.996Z,1001.79
2022-08-17T06:43:35.949Z,1001.79
2022-08-17T06:44:43.492Z,1001.81
2022-08-17T06:45:35.928Z,1001.78
2022-08-17T06:46:35.926Z,1001.82
2022-08-17T06:47:36.058Z,1001.81
2022-08-17T06:48:36.064Z,1001.82
2022-08-17T06:49:35.898Z,1001.83
2022-08-17T06:50:35.950Z,1001.83
2022-08-17T06:51:35.889Z,1001.85
2022-08-17T06:52:46.656Z,1001.86
2022-08-17T06:53:35.772Z,1001.84
2022-08-17T06:54:35.730Z,1001.87
2022-08-17T06:55:38.090Z,1001.84
2022-08-17T06:56:52.783Z,1001.90
2022-08-17T06:57:35.781Z,1001.88
2022-08-17T06:58:35.859Z,1001.83
2022-08-17T06:59:55.533Z,1001.82
2022-08-17T07:00:36.097Z,1001.80
2022-08-17T07:01:35.799Z,1001.79
2022-08-17T07:02:52.768Z,1001.78
2022-08-17T07:03:35.960Z,1001.75
2022-08-17T07:04:35.758Z,1001.78
2022-08-17T07:05:35.788Z,1001.76
2022-08-17T07:06:37.691Z,1001.74
2022-08-17T07:07:35.644Z,1001.73
2022-08-17T07:08:35.693Z,1001.76
2022-08-17T07:09:35.649Z,1001.75
2022-08-17T07:10:35.714Z,1001.75
2022-08-17T07:11:35.711Z,1001.78
2022-08-17T07:12:35.500Z,1001.81
2022-08-17T07:13:35.647Z,1001.79
2022-08-17T07:14:35.659Z,1001.80
2022-08-17T07:15:35.883Z,1001.83
2022-08-17T07:16:35.738Z,1001.85
2022-08-17T07:17:46.769Z,1001.88
2022-08-17T07:18:35.631Z,1001.87
2022-08-17T07:19:35.496Z,1001.86
2022-08-17T07:20:35.466Z,1001.88
2022-08-17T07:21:35.516Z,1001.88
2022-08-17T07:22:50.572Z,1001.86
2022-08-17T07:23:35.341Z,1001.84
2022-08-17T07:24:35.325Z,1001.85
2022-08-17T07:25:35.304Z,1001.87
2022-08-17T07:26:35.304Z,1001.85
2022-08-17T07:27:35.278Z,1001.92
2022-08-17T07:28:35.269Z,1001.88
2022-08-17T07:29:35.275Z,1001.90
2022-08-17T07:30:40.081Z,1001.90
2022-08-17T07:31:35.260Z,1001.95
2022-08-17T07:32:35.216Z,1001.98
2022-08-17T07:33:35.213Z,1001.99
2022-08-17T07:34:35.201Z,1001.98
2022-08-17T07:35:41.023Z,1002.00
2022-08-17T07:36:35.218Z,1001.98
2022-08-17T07:37:35.161Z,1001.97
2022-08-17T07:38:35.149Z,1001.99
2022-08-17T07:39:35.190Z,1002.01
2022-08-17T07:40:35.220Z,1001.98
2022-08-17T07:41:57.430Z,1002.00
2022-08-17T07:42:35.136Z,1002.00
2022-08-17T07:43:35.118Z,1002.02
2022-08-17T07:44:35.084Z,1001.97
2022-08-17T07:45:35.106Z,1001.95
2022-08-17T07:46:35.120Z,1001.98
2022-08-17T07:47:35.078Z,1001.96
2022-08-17T07:48:35.040Z,1002.01
2022-08-17T07:49:35.047Z,1001.94
2022-08-17T07:50:35.023Z,1001.96
2022-08-17T07:51:35.038Z,1001.97
2022-08-17T07:52:50.895Z,1001.95
2022-08-17T07:53:35.000Z,1001.99
2022-08-17T07:54:34.999Z,1002.03
2022-08-17T07:55:35.033Z,1002.02
2022-08-17T07:56:35.018Z,1002.00
2022-08-17T07:57:34.977Z,1002.01
2022-08-17T07:58:35.091Z,1002.05
2022-08-17T07:59:34.977Z,1002.07
2022-08-17T08:00:34.940Z,1002.06
2022-08-17T08:01:41.738Z,1002.07
2022-08-17T08:02:34.941Z,1002.08
2022-08-17T08:03:35.281Z,1002.05
2022-08-17T08:04:58.865Z,1002.07
2022-08-17T08:05:50.755Z,1002.02
2022-08-17T08:06:34.909Z,1002.02
2022-08-17T08:07:34.899Z,1002.03
2022-08-17T08:08:34.864Z,1002.04
2022-08-17T08:09:34.831Z,1002.03
2022-08-17T08:10:34.819Z,1002.02
2022-08-17T08:11:34.865Z,1002.04
2022-08-17T08:12:34.802Z,1002.04
2022-08-17T08:13:34.774Z,1002.06
2022-08-17T08:14:34.772Z,1002.03
2022-08-17T08:15:34.753Z,1002.05
2022-08-17T08:16:34.779Z,1002.06
2022-08-17T08:17:34.780Z,1002.04
2022-08-17T08:18:54.943Z,1002.06
2022-08-17T08:19:34.715Z,1002.03
2022-08-17T08:20:52.439Z,1002.05
2022-08-17T08:21:34.717Z,1002.05
2022-08-17T08:22:34.690Z,1002.06
2022-08-17T08:23:34.665Z,1002.06
2022-08-17T08:24:34.676Z,1002.11
2022-08-17T08:25:34.670Z,1002.10
2022-08-17T08:26:34.671Z,1002.10
2022-08-17T08:27:34.663Z,1002.11
2022-08-17T08:28:34.627Z,1002.12
2022-08-17T08:29:34.612Z,1002.06
2022-08-17T08:30:34.615Z,1002.11
2022-08-17T08:31:36.740Z,1002.09
2022-08-17T08:32:34.624Z,1002.15
2022-08-17T08:33:34.580Z,1002.12
2022-08-17T08:34:58.564Z,1002.10
2022-08-17T08:35:34.548Z,1002.10
2022-08-17T08:36:58.144Z,1002.10
2022-08-17T08:37:38.010Z,1002.08
2022-08-17T08:38:34.526Z,1002.08
2022-08-17T08:39:34.527Z,1002.10
2022-08-17T08:40:34.515Z,1002.12
2022-08-17T08:41:34.523Z,1002.16
2022-08-17T08:42:34.474Z,1002.16
2022-08-17T08:43:34.468Z,1002.18
2022-08-17T08:44:59.958Z,1002.17
2022-08-17T08:45:34.455Z,1002.16
2022-08-17T08:46:34.471Z,1002.14
2022-08-17T08:47:35.418Z,1002.15
2022-08-17T08:48:56.895Z,1002.12
2022-08-17T08:50:02.144Z,1002.10
2022-08-17T08:50:37.939Z,1002.10
2022-08-17T08:51:34.405Z,1002.04
2022-08-17T08:52:34.373Z,1002.09
2022-08-17T08:53:34.388Z,1002.10
2022-08-17T08:54:34.348Z,1002.13
2022-08-17T08:55:34.366Z,1002.15
2022-08-17T08:56:34.354Z,1002.11
2022-08-17T08:57:34.859Z,1002.10
2022-08-17T08:58:41.303Z,1002.09
2022-08-17T08:59:34.316Z,1002.11
2022-08-17T09:00:34.339Z,1002.07
2022-08-17T09:01:34.371Z,1002.04
2022-08-17T09:02:34.646Z,1002.04
2022-08-17T09:03:51.821Z,1002.03
2022-08-17T09:04:50.008Z,1002.06
2022-08-17T09:05:34.359Z,1002.08
2022-08-17T09:06:39.088Z,1002.11
2022-08-17T09:07:34.342Z,1002.09
2022-08-17T09:08:34.226Z,1002.08
2022-08-17T09:09:34.214Z,1002.04
2022-08-17T09:10:34.233Z,1002.07
2022-08-17T09:11:34.238Z,1001.99
2022-08-17T09:12:34.336Z,1002.06
2022-08-17T09:13:34.138Z,1002.03
2022-08-17T09:14:36.582Z,1002.04
2022-08-17T09:15:34.232Z,1002.04
2022-08-17T09:16:34.141Z,1002.04
2022-08-17T09:17:34.115Z,1002.03
2022-08-17T09:19:03.326Z,1002.06
2022-08-17T09:19:34.081Z,1002.12
2022-08-17T09:20:34.061Z,1002.14
2022-08-17T09:21:34.121Z,1002.17
2022-08-17T09:22:34.036Z,1002.22
2022-08-17T09:23:34.030Z,1002.24
2022-08-17T09:24:34.073Z,1002.15
2022-08-17T09:25:34.014Z,1002.19
2022-08-17T09:26:34.020Z,1002.16
2022-08-17T09:27:34.001Z,1002.09
2022-08-17T09:28:34.022Z,1002.02
2022-08-17T09:29:33.999Z,1002.01
2022-08-17T09:30:33.978Z,1002.03
2022-08-17T09:31:33.975Z,1001.99
2022-08-17T09:32:33.947Z,1001.98
2022-08-17T09:33:33.943Z,1001.98
2022-08-17T09:34:33.929Z,1002.00
2022-08-17T09:35:36.919Z,1002.04
2022-08-17T09:36:33.923Z,1002.05
2022-08-17T09:37:33.895Z,1002.13
2022-08-17T09:38:33.874Z,1002.10
2022-08-17T09:39:33.911Z,1002.12
2022-08-17T09:40:33.849Z,1002.12
2022-08-17T09:41:33.858Z,1002.06
2022-08-17T09:42:33.832Z,1002.01
2022-08-17T09:43:33.877Z,1002.02
2022-08-17T09:44:33.804Z,1002.04
2022-08-17T09:45:33.801Z,1002.07
2022-08-17T09:46:33.810Z,1002.10
2022-08-17T09:47:33.797Z,1002.14
2022-08-17T09:48:33.787Z,1002.13
2022-08-17T09:49:33.756Z,1002.18
2022-08-17T09:51:05.073Z,1002.16
2022-08-17T09:51:33.777Z,1002.13
2022-08-17T09:52:33.730Z,1002.13
2022-08-17T09:53:33.717Z,1002.11
2022-08-17T09:54:41.126Z,1002.08
2022-08-17T09:55:33.713Z,1002.03
2022-08-17T09:56:33.723Z,1001.98
2022-08-17T09:57:33.704Z,1002.03
2022-08-17T09:58:33.654Z,1002.04
2022-08-17T09:59:38.165Z,1002.08
2022-08-17T10:00:33.706Z,1002.05
2022-08-17T10:01:33.719Z,1002.04
2022-08-17T10:02:33.623Z,1002.04
2022-08-17T10:03:33.607Z,1002.05
2022-08-17T10:04:33.626Z,1002.04
2022-08-17T10:05:33.585Z,1002.04
2022-08-17T10:06:33.618Z,1002.07
2022-08-17T10:07:33.575Z,1001.99
2022-08-17T10:08:33.585Z,1001.99
2022-08-17T10:09:33.538Z,1002.02
2022-08-17T10:10:33.562Z,1002.01
2022-08-17T10:11:34.033Z,1002.02
2022-08-17T10:12:33.515Z,1001.96
2022-08-17T10:13:33.550Z,1001.97
2022-08-17T10:14:37.318Z,1001.94
2022-08-17T10:15:33.470Z,1001.96
2022-08-17T10:16:33.481Z,1001.94
2022-08-17T10:17:33.437Z,1001.91
2022-08-17T10:18:33.487Z,1001.92
2022-08-17T10:19:33.430Z,1001.92
2022-08-17T10:20:33.414Z,1001.91
2022-08-17T10:21:33.422Z,1001.92
2022-08-17T10:22:35.544Z,1001.91
2022-08-17T10:23:33.384Z,1001.91
2022-08-17T10:24:33.394Z,1001.92
2022-08-17T10:25:53.443Z,1001.89
2022-08-17T10:26:55.968Z,1001.88
2022-08-17T10:27:33.376Z,1001.90
2022-08-17T10:28:33.332Z,1001.86
2022-08-17T10:29:47.311Z,1001.90
2022-08-17T10:30:33.302Z,1001.90
2022-08-17T10:31:35.117Z,1001.88
2022-08-17T10:32:33.266Z,1001.87
2022-08-17T10:33:33.257Z,1001.86
2022-08-17T10:34:38.668Z,1001.87
2022-08-17T10:35:33.270Z,1001.86
2022-08-17T10:36:33.245Z,1001.85
2022-08-17T10:37:33.273Z,1001.85
2022-08-17T10:38:33.213Z,1001.82
2022-08-17T10:39:33.234Z,1001.87
2022-08-17T10:40:33.340Z,1001.87
2022-08-17T10:41:38.163Z,1001.86
2022-08-17T10:42:33.379Z,1001.86
2022-08-17T10:43:33.151Z,1001.88
2022-08-17T10:44:39.516Z,1001.84
2022-08-17T10:45:33.142Z,1001.90
2022-08-17T10:46:33.157Z,1001.84
2022-08-17T10:47:52.714Z,1001.86
2022-08-17T10:48:33.131Z,1001.92
2022-08-17T10:49:33.105Z,1001.89
2022-08-17T10:50:33.065Z,1001.87
2022-08-17T10:51:33.096Z,1001.85
2022-08-17T10:52:33.070Z,1001.85
2022-08-17T10:53:33.029Z,1001.81
2022-08-17T10:54:33.063Z,1001.83
2022-08-17T10:55:33.042Z,1001.81
2022-08-17T10:56:33.026Z,1001.82
2022-08-17T10:57:33.007Z,1001.82
2022-08-17T10:58:32.997Z,1001.81
2022-08-17T10:59:32.970Z,1001.85
2022-08-17T11:00:33.044Z,1001.82
2022-08-17T11:01:33.129Z,1001.84
2022-08-17T11:02:32.951Z,1001.82
2022-08-17T11:03:32.937Z,1001.80
2022-08-17T11:04:32.933Z,1001.85
2022-08-17T11:05:32.941Z,1001.84
2022-08-17T11:06:32.919Z,1001.84
2022-08-17T11:07:32.873Z,1001.84
2022-08-17T11:08:32.875Z,1001.80
2022-08-17T11:09:32.875Z,1001.83
2022-08-17T11:10:32.837Z,1001.80
2022-08-17T11:11:32.869Z,1001.84
2022-08-17T11:12:32.824Z,1001.84
2022-08-17T11:13:32.819Z,1001.82
2022-08-17T11:14:32.815Z,1001.83
2022-08-17T11:15:32.811Z,1001.84
2022-08-17T11:16:32.805Z,1001.90
2022-08-17T11:17:32.789Z,1001.89
2022-08-17T11:18:32.784Z,1001.90
2022-08-17T11:19:32.745Z,1001.92
2022-08-17T11:20:32.732Z,1001.92
2022-08-17T11:21:32.763Z,1001.95
2022-08-17T11:22:33.718Z,1002.01
2022-08-17T11:23:32.689Z,1001.96
2022-08-17T11:24:32.699Z,1002.02
2022-08-17T11:25:32.694Z,1002.02
2022-08-17T11:26:32.720Z,1002.01
2022-08-17T11:27:32.661Z,1002.02
2022-08-17T11:28:32.667Z,1002.00
2022-08-17T11:29:32.623Z,1002.00
2022-08-17T11:30:32.632Z,1002.05
2022-08-17T11:31:38.823Z,1002.01
2022-08-17T11:32:32.611Z,1002.03
2022-08-17T11:33:32.586Z,1002.02
2022-08-17T11:34:32.603Z,1002.06
2022-08-17T11:35:32.561Z,1002.02
2022-08-17T11:36:32.613Z,1001.98
2022-08-17T11:37:32.535Z,1001.97
2022-08-17T11:38:32.547Z,1001.97
2022-08-17T11:39:32.547Z,1001.95
2022-08-17T11:40:32.507Z,1001.98
2022-08-17T11:41:32.510Z,1001.95
2022-08-17T11:42:32.494Z,1001.98
2022-08-17T11:43:32.482Z,1001.97
2022-08-17T11:44:32.466Z,1002.00
2022-08-17T11:45:33.045Z,1001.97
2022-08-17T11:46:32.575Z,1001.94
2022-08-17T11:47:32.430Z,1001.96
2022-08-17T11:48:32.685Z,1001.97
2022-08-17T11:49:32.409Z,1001.98
2022-08-17T11:50:32.395Z,1001.96
2022-08-17T11:51:32.405Z,1001.98
2022-08-17T11:52:32.366Z,1002.00
2022-08-17T11:53:32.357Z,1002.00
2022-08-17T11:54:34.049Z,1002.01
2022-08-17T11:55:35.848Z,1002.01
2022-08-17T11:56:32.340Z,1002.03
2022-08-17T11:57:32.327Z,1002.02
2022-08-17T11:58:32.325Z,1002.04
2022-08-17T11:59:32.296Z,1002.05
2022-08-17T12:00:32.312Z,1002.05
2022-08-17T12:01:32.290Z,1002.06
2022-08-17T12:02:32.478Z,1002.05
2022-08-17T12:03:32.469Z,1002.06
2022-08-17T12:04:32.308Z,1002.08
2022-08-17T12:05:32.230Z,1002.07